首页
METAR-TAF:

METAR-TAF

机场 :

Tupelo Regional Airport (C.D. Lemons Field)

图珀洛, 密西西比州, 美国

纬度: 34-16-05N, 经度: 088-46-12W, 海拔: 106米

当前天气观测

该预报发布于1小时和0分钟前的19:53 UTC
风速4节,风向多变
温度 18°C
湿度 28%
气压 1015 hPa
能見度: 16.1公里
天空无云

METAR: KTUP 171953Z VRB04KT 10SM CLR 18/M01 A2996 RMK AO2 SLP145 T01831006 $

时间: 14:53 (20:53 UTC)

预报

该预报发布于3小时和8分钟前的17:45 UTC
预报有效从17日的 18点(UTC)到 18日的 18点(UTC)
风速4节,风向西转西北
能見度: 10公里
散云层高于25000英尺
从 18日的 0000点(UTC)
风速2节,风向多变
能見度: 10公里
多云层高于25000英尺
从 18日的 0600点(UTC)
风速2节,风向多变
能見度: 10公里
多云层高于10000英尺
从 18日的 1400点(UTC)
风速5节,风向
能見度: 10公里
散云层高于4000英尺

TAF: KTUP 171745Z 1718/1818 29004KT P6SM SCT250 FM180000 VRB02KT P6SM BKN250 FM180600 VRB02KT P6SM BKN100 FM181400 35005KT P6SM SCT040

超过4000个机场的气象观测和天气预报(METAR&TAF报告)。

可查询的气象台以黄色和红色小点在地图上表示。

将鼠标移到小点上方,可查看气象台名称。

然后点击查看天气观测和预报。

如需切换地图:点击带黑十字的绿色按钮放大地图;点击带横线的绿色按钮缩小地图;或者点击绿色箭头查看邻近地区的地图。


METAR-TAF: